Northway

About
Name: Northway
Identifier:  ORT/PAOR
Serves:  Northway, Alaska
Owner:  Alaska DOT&PF - Northern Region
Public/Private:  Public
Local Time:  17. Aug 20:44 AKDT
Description: Northway Airport is a state owned, public use airport serving Northway, a community located in the Southeast Fairbanks Census Area of the U.S. state of Alaska. It is included in the National Plan of Integrated Airport Systems for 2011–2015, which categorized it as a general aviation facility.
Source: Wikipedia
Location
Runways
Identifier Length (m/ft) Surface
5/23 5,100/5,100 Asphalt
Flights per Day
0 flights
Distance: 65km (40mi)
Current Weather
 9 C (Humidity: 46%)
  6kt (11km/h / 6mph) from 350°
15 knots Gusts

  Broken clouds at 6,000 feet (1,828 meter)
  16km (10 mi.)
 METAR PAOR 180353Z AUTO 35006G15KT 10SM BKN060 09/M02 A3039 RMK AO2 SLP304 T00941017 TSNO

Current Flights

Departures
Number Departure To Airline
Arrivals
Number Arrival From Airline

Current Delays

Departures
N/A
Arrivals
N/A

Destinations

Top Destinations
Airport Flights
per week
Seats
per week
  Whitehorse (YXY) 0 - 0 0

Airlines & Planes

Top Airlines
Airline Flights
per Day
Seats
per Day
  Flybe Nordic 0 -
Top Plane Types
Model Flights Seats
Piper PA-31-350 0.0/day - 0